createdAt,value
2018-11-11T00:01:08.120Z,8.10
2018-11-11T00:03:36.238Z,7.77
2018-11-11T00:06:04.365Z,7.70
2018-11-11T00:08:32.459Z,8.37
2018-11-11T00:11:00.594Z,8.00
2018-11-11T00:13:28.784Z,6.97
2018-11-11T00:15:56.897Z,8.30
2018-11-11T00:18:25.012Z,7.83
2018-11-11T00:20:53.135Z,7.40
2018-11-11T00:23:21.234Z,8.10
2018-11-11T00:25:49.358Z,7.53
2018-11-11T00:28:17.470Z,7.40
2018-11-11T00:30:45.588Z,8.40
2018-11-11T00:33:13.718Z,7.23
2018-11-11T00:35:41.826Z,7.70
2018-11-11T00:38:12.731Z,8.10
2018-11-11T00:40:41.000Z,8.20
2018-11-11T00:43:09.402Z,8.90
2018-11-11T00:45:40.023Z,9.10
2018-11-11T00:48:08.325Z,8.80
2018-11-11T00:50:36.546Z,8.17
2018-11-11T00:53:04.766Z,8.23
2018-11-11T00:55:40.042Z,9.30
2018-11-11T00:58:08.465Z,9.70
2018-11-11T01:00:36.697Z,8.57
2018-11-11T01:03:05.194Z,8.67
2018-11-11T01:05:33.346Z,8.20
2018-11-11T01:08:01.467Z,9.50
2018-11-11T01:10:29.595Z,9.60
2018-11-11T01:12:57.728Z,9.33
2018-11-11T01:15:25.865Z,9.00
2018-11-11T01:17:53.999Z,9.00
2018-11-11T01:20:22.148Z,10.00
2018-11-11T01:22:50.308Z,9.00
2018-11-11T01:25:18.426Z,8.63
2018-11-11T01:27:46.570Z,9.03
2018-11-11T01:30:14.722Z,8.37
2018-11-11T01:32:42.858Z,9.40
2018-11-11T01:35:12.828Z,9.90
2018-11-11T01:37:41.655Z,9.53
2018-11-11T01:40:09.958Z,10.03
2018-11-11T01:42:38.185Z,10.20
2018-11-11T01:45:09.490Z,9.23
2018-11-11T01:47:37.671Z,9.70
2018-11-11T01:50:06.624Z,9.70
2018-11-11T01:52:35.822Z,9.60
2018-11-11T01:55:03.950Z,11.10
2018-11-11T01:57:32.112Z,11.60
2018-11-11T02:00:00.297Z,10.13
2018-11-11T02:02:28.458Z,11.53
2018-11-11T02:04:56.601Z,11.00
2018-11-11T02:07:24.734Z,11.57
2018-11-11T02:09:52.938Z,10.87
2018-11-11T02:12:21.050Z,11.73
2018-11-11T02:14:49.186Z,11.70
2018-11-11T02:17:17.356Z,11.40
2018-11-11T02:19:45.485Z,12.30
2018-11-11T02:22:13.613Z,12.20
2018-11-11T02:24:41.774Z,12.13
2018-11-11T02:27:10.374Z,12.07
2018-11-11T02:29:38.517Z,12.20
2018-11-11T02:32:06.686Z,12.13
2018-11-11T02:34:34.820Z,12.13
2018-11-11T02:37:02.957Z,12.57
2018-11-11T02:39:31.126Z,12.47
2018-11-11T02:41:59.493Z,13.27
2018-11-11T02:44:27.693Z,12.60
2018-11-11T02:46:55.822Z,12.50
2018-11-11T02:49:23.970Z,11.90
2018-11-11T02:51:52.093Z,13.83
2018-11-11T02:54:20.227Z,13.40
2018-11-11T02:56:48.340Z,13.50
2018-11-11T02:59:16.470Z,15.00
2018-11-11T03:01:44.595Z,14.80
2018-11-11T03:04:12.794Z,13.60
2018-11-11T03:06:40.951Z,13.20
2018-11-11T03:09:10.321Z,11.47
2018-11-11T03:11:38.592Z,12.87
2018-11-11T03:14:07.016Z,10.80
2018-11-11T03:16:35.151Z,11.97
2018-11-11T03:19:03.293Z,11.10
2018-11-11T03:21:31.604Z,10.90
2018-11-11T03:23:59.749Z,10.17
2018-11-11T03:26:27.861Z,9.50
2018-11-11T03:28:56.049Z,10.80
2018-11-11T03:31:24.196Z,9.60
2018-11-11T03:33:52.765Z,10.50
2018-11-11T03:36:21.135Z,11.27
2018-11-11T03:38:49.865Z,12.10
2018-11-11T03:41:17.997Z,10.60
2018-11-11T03:43:47.016Z,10.10
2018-11-11T03:46:15.251Z,10.83
2018-11-11T03:48:43.565Z,11.20
2018-11-11T03:51:11.690Z,11.40
2018-11-11T03:53:39.938Z,10.60
2018-11-11T03:56:08.111Z,11.00
2018-11-11T03:58:36.387Z,12.00
2018-11-11T04:01:05.062Z,12.17
2018-11-11T04:03:33.537Z,13.07
2018-11-11T04:06:01.799Z,13.00
2018-11-11T04:08:30.277Z,12.37
2018-11-11T04:10:58.474Z,12.70
2018-11-11T04:13:26.649Z,13.73
2018-11-11T04:15:55.011Z,13.93
2018-11-11T04:18:26.932Z,12.10
2018-11-11T04:20:57.250Z,14.70
2018-11-11T04:23:26.486Z,14.03
2018-11-11T04:25:54.636Z,14.10
2018-11-11T04:28:23.340Z,15.77
2018-11-11T04:30:51.507Z,14.37
2018-11-11T04:33:19.705Z,14.87
2018-11-11T04:35:47.943Z,15.53
2018-11-11T04:38:16.867Z,17.60
2018-11-11T04:40:44.984Z,15.87
2018-11-11T04:43:13.295Z,16.80
2018-11-11T04:45:41.483Z,16.13
2018-11-11T04:48:09.621Z,17.10
2018-11-11T04:50:37.781Z,16.00
2018-11-11T04:53:05.934Z,17.17
2018-11-11T04:55:34.086Z,17.20
2018-11-11T04:58:04.340Z,15.93
2018-11-11T05:00:32.503Z,16.50
2018-11-11T05:03:01.534Z,15.77
2018-11-11T05:05:29.850Z,14.93
2018-11-11T05:07:59.979Z,15.13
2018-11-11T05:10:28.337Z,16.27
2018-11-11T05:12:56.522Z,17.07
2018-11-11T05:15:24.913Z,16.47
2018-11-11T05:17:53.078Z,15.90
2018-11-11T05:20:21.390Z,16.63
2018-11-11T05:22:49.590Z,17.87
2018-11-11T05:25:17.862Z,17.43
2018-11-11T05:27:46.020Z,17.47
2018-11-11T05:30:14.804Z,17.17
2018-11-11T05:32:42.957Z,16.97
2018-11-11T05:35:11.925Z,17.10
2018-11-11T05:37:41.413Z,17.53
2018-11-11T05:40:10.786Z,17.83
2018-11-11T05:42:39.242Z,17.00
2018-11-11T05:45:08.313Z,17.60
2018-11-11T05:47:37.429Z,18.03
2018-11-11T05:50:08.265Z,16.70
2018-11-11T05:52:36.463Z,17.23
2018-11-11T05:55:05.437Z,16.67
2018-11-11T05:57:33.742Z,17.90
2018-11-11T06:00:02.685Z,17.20
2018-11-11T06:02:30.897Z,16.40
2018-11-11T06:04:59.149Z,16.80
2018-11-11T06:07:27.341Z,15.50
2018-11-11T06:09:55.585Z,16.20
2018-11-11T06:12:25.881Z,16.83
2018-11-11T06:14:54.038Z,16.33
2018-11-11T06:17:22.736Z,14.87
2018-11-11T06:19:50.884Z,16.33
2018-11-11T06:22:19.032Z,15.87
2018-11-11T06:24:47.173Z,14.80
2018-11-11T06:27:15.457Z,15.03
2018-11-11T06:29:43.568Z,13.00
2018-11-11T06:32:12.553Z,12.47
2018-11-11T06:34:40.661Z,12.00
2018-11-11T06:37:08.821Z,12.47
2018-11-11T06:39:37.003Z,12.40
2018-11-11T06:42:05.200Z,11.63
2018-11-11T06:44:33.417Z,11.43
2018-11-11T06:47:01.614Z,9.73
2018-11-11T06:49:29.825Z,9.90
2018-11-11T06:51:58.193Z,10.43
2018-11-11T06:54:26.358Z,7.80
2018-11-11T06:56:54.566Z,7.27
2018-11-11T06:59:22.990Z,6.50
2018-11-11T07:01:51.170Z,6.60
2018-11-11T07:04:19.920Z,6.47
2018-11-11T07:06:48.238Z,6.10
2018-11-11T07:09:16.408Z,6.07
2018-11-11T07:11:44.573Z,6.20
2018-11-11T07:14:12.893Z,5.40
2018-11-11T07:16:41.051Z,5.70
2018-11-11T07:19:09.225Z,6.00
2018-11-11T07:21:37.598Z,5.43
2018-11-11T07:24:05.805Z,5.97
2018-11-11T07:26:34.090Z,6.20
2018-11-11T07:29:02.239Z,6.63
2018-11-11T07:31:31.090Z,6.67
2018-11-11T07:33:59.249Z,6.70
2018-11-11T07:36:27.444Z,7.97
2018-11-11T07:38:55.604Z,8.07
2018-11-11T07:41:23.847Z,7.50
2018-11-11T07:43:52.774Z,7.93
2018-11-11T07:46:21.908Z,7.53
2018-11-11T07:48:52.123Z,8.10
2018-11-11T07:51:20.294Z,8.00
2018-11-11T07:53:48.470Z,8.10
2018-11-11T07:56:17.237Z,7.03
2018-11-11T07:58:45.460Z,8.33
2018-11-11T08:01:13.677Z,7.30
2018-11-11T08:03:41.863Z,8.27
2018-11-11T08:06:10.128Z,8.47
2018-11-11T08:08:38.314Z,8.90
2018-11-11T08:11:18.013Z,9.10
2018-11-11T08:13:46.597Z,8.83
2018-11-11T08:16:14.767Z,9.30
2018-11-11T08:18:43.620Z,9.83
2018-11-11T08:21:11.817Z,9.90
2018-11-11T08:23:40.706Z,10.30
2018-11-11T08:26:09.457Z,10.30
2018-11-11T08:28:37.774Z,10.30
2018-11-11T08:31:06.404Z,10.60
2018-11-11T08:33:35.109Z,11.93
2018-11-11T08:36:03.295Z,11.57
2018-11-11T08:38:32.093Z,11.23
2018-11-11T08:41:00.859Z,12.07
2018-11-11T08:43:30.077Z,12.40
2018-11-11T08:45:58.200Z,11.07
2018-11-11T08:48:26.491Z,11.27
2018-11-11T08:50:54.743Z,10.93
2018-11-11T08:53:22.873Z,10.87
2018-11-11T08:55:51.182Z,11.23
2018-11-11T08:58:19.353Z,12.20
2018-11-11T09:00:47.673Z,11.00
2018-11-11T09:03:15.792Z,11.30
2018-11-11T09:05:43.934Z,10.30
2018-11-11T09:08:12.147Z,10.80
2018-11-11T09:10:40.384Z,11.20
2018-11-11T09:13:08.589Z,10.77
2018-11-11T09:15:36.718Z,9.40
2018-11-11T09:18:05.019Z,10.77
2018-11-11T09:20:33.302Z,10.50
2018-11-11T09:23:01.603Z,10.13
2018-11-11T09:25:29.876Z,9.67
2018-11-11T09:27:58.031Z,10.00
2018-11-11T09:30:26.265Z,10.47
2018-11-11T09:32:54.323Z,10.33
2018-11-11T09:35:22.830Z,10.97
2018-11-11T09:37:51.058Z,9.23
2018-11-11T09:40:19.329Z,9.00
2018-11-11T09:42:47.534Z,9.10
2018-11-11T09:45:16.334Z,10.70
2018-11-11T09:47:45.277Z,8.50
2018-11-11T09:50:14.673Z,7.60
2018-11-11T09:52:42.916Z,8.50
2018-11-11T09:55:12.748Z,6.50
2018-11-11T09:57:41.624Z,7.20
2018-11-11T10:00:14.751Z,7.10
2018-11-11T10:02:44.442Z,7.50
2018-11-11T10:05:20.975Z,5.70
2018-11-11T10:07:54.964Z,5.90
2018-11-11T10:10:32.551Z,6.10
2018-11-11T10:14:05.654Z,5.60
2018-11-11T10:16:40.014Z,6.10
2018-11-11T10:19:13.659Z,5.63
2018-11-11T10:21:49.911Z,5.93
2018-11-11T10:24:23.540Z,5.33
2018-11-11T10:26:57.516Z,6.87
2018-11-11T10:29:32.007Z,5.53
2018-11-11T10:32:11.565Z,5.50
2018-11-11T10:34:46.155Z,6.07
2018-11-11T10:37:50.725Z,6.40
2018-11-11T10:40:24.236Z,6.10
2018-11-11T10:42:56.291Z,6.97
2018-11-11T10:45:31.274Z,6.07
2018-11-11T10:48:05.797Z,5.30
2018-11-11T10:50:38.904Z,5.70
2018-11-11T10:53:07.422Z,5.73
2018-11-11T10:55:35.569Z,5.77
2018-11-11T10:58:03.756Z,6.10
2018-11-11T11:00:37.400Z,7.00
2018-11-11T11:03:10.056Z,5.50
2018-11-11T11:05:38.250Z,6.60
2018-11-11T11:08:06.558Z,5.93
2018-11-11T11:10:34.713Z,6.33
2018-11-11T11:13:03.544Z,7.30
2018-11-11T11:15:33.085Z,7.30
2018-11-11T11:18:01.311Z,7.60
2018-11-11T11:20:29.450Z,6.53
2018-11-11T11:22:57.795Z,6.67
2018-11-11T11:25:26.189Z,6.83
2018-11-11T11:27:54.880Z,6.27
2018-11-11T11:30:26.685Z,7.00
2018-11-11T11:32:55.600Z,7.00
2018-11-11T11:35:24.553Z,7.50
2018-11-11T11:37:52.688Z,7.07
2018-11-11T11:40:20.890Z,6.83
2018-11-11T11:42:49.061Z,6.80
2018-11-11T11:45:17.348Z,7.23
2018-11-11T11:47:46.539Z,6.63
2018-11-11T11:50:15.755Z,5.47
2018-11-11T11:52:43.979Z,5.20
2018-11-11T11:55:12.819Z,4.80
2018-11-11T11:57:41.472Z,4.87
2018-11-11T12:00:12.093Z,5.50
2018-11-11T12:02:40.717Z,4.80
2018-11-11T12:05:09.673Z,5.33
2018-11-11T12:07:37.846Z,5.30
2018-11-11T12:10:08.574Z,4.80
2018-11-11T12:12:36.889Z,3.90
2018-11-11T12:15:06.054Z,4.47
2018-11-11T12:17:34.208Z,4.87
2018-11-11T12:20:02.385Z,4.63
2018-11-11T12:22:30.578Z,4.33
2018-11-11T12:24:58.731Z,4.97
2018-11-11T12:27:26.892Z,4.23
2018-11-11T12:29:55.062Z,4.27
2018-11-11T12:32:23.277Z,4.80
2018-11-11T12:34:52.472Z,4.37
2018-11-11T12:37:20.620Z,4.00
2018-11-11T12:39:52.476Z,4.50
2018-11-11T12:42:20.548Z,4.90
2018-11-11T12:44:48.741Z,4.67
2018-11-11T12:47:16.780Z,4.80
2018-11-11T12:49:44.893Z,4.50
2018-11-11T12:52:13.046Z,4.10
2018-11-11T12:54:41.284Z,3.80
2018-11-11T12:57:09.577Z,4.17
2018-11-11T12:59:38.144Z,3.70
2018-11-11T13:02:06.342Z,4.03
2018-11-11T13:04:34.647Z,4.23
2018-11-11T13:07:02.713Z,4.60
2018-11-11T13:09:30.877Z,4.27
2018-11-11T13:11:59.086Z,4.50
2018-11-11T13:14:27.285Z,4.23
2018-11-11T13:16:55.658Z,3.47
2018-11-11T13:19:23.827Z,4.03
2018-11-11T13:21:52.086Z,3.47
2018-11-11T13:24:20.258Z,4.20
2018-11-11T13:26:48.414Z,3.70
2018-11-11T13:29:16.539Z,3.90
2018-11-11T13:31:45.547Z,3.77
2018-11-11T13:34:14.423Z,3.90
2018-11-11T13:36:42.558Z,3.70
2018-11-11T13:39:12.970Z,3.90
2018-11-11T13:41:41.259Z,3.33
2018-11-11T13:44:09.649Z,3.20
2018-11-11T13:46:38.488Z,3.70
2018-11-11T13:49:06.642Z,3.73
2018-11-11T13:51:35.407Z,3.43
2018-11-11T13:54:03.516Z,3.23
2018-11-11T13:56:31.669Z,3.40
2018-11-11T13:58:59.911Z,2.90
2018-11-11T14:01:29.092Z,3.40
2018-11-11T14:03:57.458Z,2.93
2018-11-11T14:06:26.010Z,3.30
2018-11-11T14:08:54.183Z,3.10
2018-11-11T14:11:22.350Z,3.23
2018-11-11T14:13:50.549Z,3.20
2018-11-11T14:16:18.754Z,3.13
2018-11-11T14:18:48.148Z,3.10
2018-11-11T14:21:16.171Z,2.83
2018-11-11T14:23:44.366Z,3.43
2018-11-11T14:26:12.489Z,2.87
2018-11-11T14:28:44.300Z,2.90
2018-11-11T14:31:12.441Z,2.80
2018-11-11T14:33:40.599Z,2.90
2018-11-11T14:36:08.737Z,2.60
2018-11-11T14:38:36.959Z,3.13
2018-11-11T14:41:05.669Z,2.10
2018-11-11T14:43:35.550Z,2.80
2018-11-11T14:46:04.465Z,2.70
2018-11-11T14:48:32.832Z,2.40
2018-11-11T14:51:01.104Z,3.07
2018-11-11T14:53:29.308Z,2.93
2018-11-11T14:55:57.489Z,2.90
2018-11-11T14:58:25.728Z,2.47
2018-11-11T15:00:53.822Z,2.83
2018-11-11T15:03:22.010Z,2.53
2018-11-11T15:05:50.384Z,2.60
2018-11-11T15:08:18.702Z,2.57
2018-11-11T15:10:47.001Z,3.47
2018-11-11T15:13:16.069Z,2.57
2018-11-11T15:15:44.229Z,2.70
2018-11-11T15:18:12.392Z,2.40
2018-11-11T15:20:40.774Z,2.63
2018-11-11T15:23:09.421Z,3.17
2018-11-11T15:25:37.554Z,3.03
2018-11-11T15:28:06.493Z,3.07
2018-11-11T15:30:35.823Z,2.83
2018-11-11T15:33:04.730Z,3.23
2018-11-11T15:35:32.874Z,2.93
2018-11-11T15:38:02.322Z,3.27
2018-11-11T15:40:32.445Z,3.27
2018-11-11T15:43:04.572Z,4.10
2018-11-11T15:45:34.133Z,3.33
2018-11-11T15:48:02.607Z,3.83
2018-11-11T15:50:31.883Z,3.33
2018-11-11T15:53:02.123Z,3.20
2018-11-11T15:55:32.141Z,3.67
2018-11-11T15:58:01.094Z,3.20
2018-11-11T16:00:30.742Z,3.43
2018-11-11T16:02:59.037Z,3.47
2018-11-11T16:05:27.969Z,3.47
2018-11-11T16:07:57.421Z,3.93
2018-11-11T16:10:29.146Z,3.70
2018-11-11T16:12:57.502Z,4.13
2018-11-11T16:15:27.754Z,4.50
2018-11-11T16:17:58.585Z,3.90
2018-11-11T16:20:28.165Z,3.53
2018-11-11T16:22:57.330Z,3.60
2018-11-11T16:25:25.611Z,4.10
2018-11-11T16:27:53.844Z,4.30
2018-11-11T16:30:25.177Z,3.90
2018-11-11T16:32:54.714Z,4.37
2018-11-11T16:35:24.105Z,3.70
2018-11-11T16:37:52.301Z,3.90
2018-11-11T16:40:22.813Z,3.53
2018-11-11T16:42:52.307Z,4.10
2018-11-11T16:45:22.558Z,3.53
2018-11-11T16:47:51.691Z,3.53
2018-11-11T16:50:22.370Z,4.03
2018-11-11T16:52:52.277Z,4.43
2018-11-11T16:55:22.144Z,3.97
2018-11-11T16:57:50.256Z,4.47
2018-11-11T17:00:20.799Z,4.50
2018-11-11T17:02:49.531Z,4.40
2018-11-11T17:05:19.901Z,4.40
2018-11-11T17:07:48.532Z,4.20
2018-11-11T17:10:18.110Z,4.37
2018-11-11T17:12:47.303Z,4.30
2018-11-11T17:15:18.005Z,4.03
2018-11-11T17:17:48.069Z,4.30
2018-11-11T17:20:18.612Z,4.67
2018-11-11T17:22:47.779Z,5.00
2018-11-11T17:25:16.836Z,4.17
2018-11-11T17:27:46.302Z,3.90
2018-11-11T17:30:17.261Z,3.93
2018-11-11T17:32:46.456Z,4.00
2018-11-11T17:35:14.684Z,4.83
2018-11-11T17:37:43.118Z,4.17
2018-11-11T17:40:13.373Z,3.60
2018-11-11T17:42:42.614Z,3.73
2018-11-11T17:45:11.320Z,3.73
2018-11-11T17:47:39.989Z,2.97
2018-11-11T17:50:11.677Z,3.60
2018-11-11T17:52:40.210Z,3.73
2018-11-11T17:55:08.797Z,3.50
2018-11-11T17:57:37.058Z,3.27
2018-11-11T18:00:06.304Z,3.13
2018-11-11T18:02:35.156Z,2.70
2018-11-11T18:05:03.415Z,3.43
2018-11-11T18:07:31.588Z,3.20
2018-11-11T18:09:59.726Z,3.00
2018-11-11T18:12:28.977Z,3.63
2018-11-11T18:14:57.143Z,3.40
2018-11-11T18:17:25.304Z,3.40
2018-11-11T18:19:53.637Z,3.40
2018-11-11T18:22:24.873Z,2.83
2018-11-11T18:24:53.036Z,2.80
2018-11-11T18:27:21.375Z,3.03
2018-11-11T18:29:49.577Z,2.87
2018-11-11T18:32:17.802Z,2.70
2018-11-11T18:34:46.644Z,2.97
2018-11-11T18:37:14.962Z,2.90
2018-11-11T18:39:44.259Z,2.67
2018-11-11T18:42:12.402Z,2.50
2018-11-11T18:44:40.599Z,3.13
2018-11-11T18:47:08.777Z,3.30
2018-11-11T18:49:36.926Z,2.50
2018-11-11T18:52:05.860Z,2.20
2018-11-11T18:54:34.078Z,2.70
2018-11-11T18:57:02.269Z,2.80
2018-11-11T18:59:30.558Z,2.47
2018-11-11T19:01:58.704Z,2.60
2018-11-11T19:04:26.893Z,2.93
2018-11-11T19:06:55.072Z,2.90
2018-11-11T19:09:23.435Z,2.70
2018-11-11T19:11:52.776Z,2.43
2018-11-11T19:14:21.190Z,2.80
2018-11-11T19:16:49.557Z,2.10
2018-11-11T19:19:18.701Z,2.53
2018-11-11T19:21:46.988Z,2.50
2018-11-11T19:24:15.393Z,2.30
2018-11-11T19:26:44.462Z,2.40
2018-11-11T19:29:12.825Z,2.40
2018-11-11T19:31:40.976Z,2.50
2018-11-11T19:34:09.666Z,2.43
2018-11-11T19:36:38.167Z,2.33
2018-11-11T19:39:09.054Z,2.57
2018-11-11T19:41:41.714Z,2.20
2018-11-11T19:44:16.742Z,2.73
2018-11-11T19:47:04.881Z,2.03
2018-11-11T19:49:43.678Z,2.50
2018-11-11T19:52:14.915Z,2.50
2018-11-11T19:54:43.893Z,2.53
2018-11-11T19:57:12.041Z,3.00
2018-11-11T19:59:41.033Z,2.30
2018-11-11T20:02:13.649Z,2.20
2018-11-11T20:04:41.785Z,2.37
2018-11-11T20:07:09.937Z,2.70
2018-11-11T20:09:38.069Z,3.10
2018-11-11T20:12:06.215Z,2.23
2018-11-11T20:14:34.352Z,2.07
2018-11-11T20:17:02.928Z,2.30
2018-11-11T20:19:31.168Z,2.00
2018-11-11T20:21:59.316Z,2.47
2018-11-11T20:24:28.391Z,2.43
2018-11-11T20:26:56.448Z,2.63
2018-11-11T20:29:24.708Z,2.10
2018-11-11T20:31:53.684Z,1.93
2018-11-11T20:34:22.617Z,2.10
2018-11-11T20:36:50.752Z,2.27
2018-11-11T20:39:19.035Z,2.13
2018-11-11T20:41:47.324Z,2.40
2018-11-11T20:44:15.508Z,2.33
2018-11-11T20:46:43.725Z,2.73
2018-11-11T20:49:11.909Z,2.13
2018-11-11T20:51:40.033Z,2.10
2018-11-11T20:54:08.146Z,2.40
2018-11-11T20:56:36.389Z,2.37
2018-11-11T20:59:04.371Z,2.00
2018-11-11T21:01:32.509Z,2.63
2018-11-11T21:04:00.665Z,2.30
2018-11-11T21:06:28.880Z,2.60
2018-11-11T21:08:57.069Z,2.30
2018-11-11T21:11:25.168Z,2.43
2018-11-11T21:13:53.344Z,2.90
2018-11-11T21:16:22.659Z,3.07
2018-11-11T21:18:54.429Z,2.37
2018-11-11T21:21:23.851Z,3.30
2018-11-11T21:23:52.130Z,3.27
2018-11-11T21:26:20.478Z,3.63
2018-11-11T21:28:48.615Z,3.80
2018-11-11T21:31:19.881Z,4.30
2018-11-11T21:33:48.123Z,5.50
2018-11-11T21:36:17.622Z,4.27
2018-11-11T21:38:45.788Z,4.10
2018-11-11T21:41:13.939Z,4.43
2018-11-11T21:43:42.147Z,3.50
2018-11-11T21:46:10.426Z,3.70
2018-11-11T21:48:39.184Z,3.10
2018-11-11T21:51:08.632Z,2.70
2018-11-11T21:53:38.971Z,2.63
2018-11-11T21:56:07.360Z,2.70
2018-11-11T21:58:35.544Z,2.40
2018-11-11T22:01:03.754Z,2.27
2018-11-11T22:03:31.916Z,2.60
2018-11-11T22:06:00.094Z,2.77
2018-11-11T22:08:28.380Z,2.77
2018-11-11T22:10:57.271Z,2.20
2018-11-11T22:13:26.106Z,2.50
2018-11-11T22:15:54.961Z,3.60
2018-11-11T22:18:23.046Z,3.30
2018-11-11T22:20:51.361Z,2.77
2018-11-11T22:23:19.514Z,3.03
2018-11-11T22:25:47.638Z,2.70
2018-11-11T22:28:15.858Z,1.80
2018-11-11T22:30:44.041Z,1.80
2018-11-11T22:33:12.208Z,1.70
2018-11-11T22:35:40.392Z,1.57
2018-11-11T22:38:08.612Z,1.43
2018-11-11T22:40:36.772Z,1.40
2018-11-11T22:43:05.015Z,1.30
2018-11-11T22:45:33.192Z,1.50
2018-11-11T22:48:01.384Z,1.30
2018-11-11T22:50:29.556Z,1.17
2018-11-11T22:52:58.260Z,1.10
2018-11-11T22:55:27.122Z,0.90
2018-11-11T22:57:55.993Z,0.90
2018-11-11T23:00:28.140Z,1.00
2018-11-11T23:02:56.472Z,0.93
2018-11-11T23:05:24.993Z,0.77
2018-11-11T23:07:53.695Z,0.83
2018-11-11T23:10:22.033Z,1.00
2018-11-11T23:12:50.210Z,0.90
2018-11-11T23:15:20.291Z,0.80
2018-11-11T23:17:48.496Z,0.87
2018-11-11T23:20:17.888Z,0.97
2018-11-11T23:22:46.503Z,1.30
2018-11-11T23:25:15.769Z,0.90
2018-11-11T23:27:44.933Z,1.17
2018-11-11T23:30:22.969Z,0.90
2018-11-11T23:32:51.703Z,1.00
2018-11-11T23:35:19.836Z,1.03
2018-11-11T23:37:48.401Z,1.20
2018-11-11T23:40:17.880Z,1.00
2018-11-11T23:42:47.009Z,1.00
2018-11-11T23:45:15.133Z,0.83
2018-11-11T23:47:43.267Z,1.00
2018-11-11T23:50:14.190Z,1.00
2018-11-11T23:52:42.948Z,0.80
2018-11-11T23:55:13.813Z,0.70
2018-11-11T23:57:42.827Z,0.90
